createdAt,value
2023-07-03T00:01:12.878Z,17.75
2023-07-03T00:03:39.890Z,17.69
2023-07-03T00:06:09.285Z,17.57
2023-07-03T00:08:39.041Z,17.69
2023-07-03T00:11:06.837Z,17.51
2023-07-03T00:13:34.143Z,17.55
2023-07-03T00:16:05.337Z,17.59
2023-07-03T00:18:32.458Z,17.84
2023-07-03T00:20:59.708Z,18.01
2023-07-03T00:23:27.456Z,17.91
2023-07-03T00:25:56.551Z,17.80
2023-07-03T00:28:23.607Z,17.92
2023-07-03T00:30:50.665Z,18.03
2023-07-03T00:33:17.606Z,17.96
2023-07-03T00:35:44.641Z,17.93
2023-07-03T00:38:11.665Z,17.98
2023-07-03T00:40:41.112Z,18.02
2023-07-03T00:43:08.776Z,17.95
2023-07-03T00:45:39.424Z,17.74
2023-07-03T00:48:06.829Z,17.82
2023-07-03T00:50:36.684Z,17.90
2023-07-03T00:53:06.379Z,17.90
2023-07-03T00:55:36.036Z,17.91
2023-07-03T00:58:03.465Z,17.96
2023-07-03T01:00:46.491Z,17.54
2023-07-03T01:03:27.804Z,17.52
2023-07-03T01:05:56.771Z,17.47
2023-07-03T01:08:28.011Z,17.24
2023-07-03T01:10:56.088Z,17.45
2023-07-03T01:13:29.158Z,17.20
2023-07-03T01:15:57.457Z,17.47
2023-07-03T01:18:25.065Z,17.70
2023-07-03T01:21:25.823Z,17.82
2023-07-03T01:24:12.239Z,17.32
2023-07-03T01:26:40.131Z,17.18
2023-07-03T01:29:07.899Z,17.26
2023-07-03T01:31:37.339Z,17.39
2023-07-03T01:34:06.165Z,17.55
2023-07-03T01:36:34.122Z,17.54
2023-07-03T01:39:03.352Z,17.54
2023-07-03T01:41:31.922Z,17.73
2023-07-03T01:44:01.503Z,17.82
2023-07-03T01:46:28.622Z,17.74
2023-07-03T01:48:55.829Z,17.65
2023-07-03T01:51:44.890Z,17.60
2023-07-03T01:54:33.744Z,17.67
2023-07-03T01:57:04.178Z,17.70
2023-07-03T01:59:33.969Z,17.59
2023-07-03T02:02:08.265Z,17.82
2023-07-03T02:05:03.926Z,17.57
2023-07-03T02:07:33.107Z,17.52
2023-07-03T02:10:01.115Z,17.73
2023-07-03T02:12:30.903Z,17.49
2023-07-03T02:15:08.405Z,17.50
2023-07-03T02:17:35.376Z,17.61
2023-07-03T02:20:02.325Z,17.62
2023-07-03T02:22:29.229Z,17.68
2023-07-03T02:24:56.156Z,17.43
2023-07-03T02:27:23.138Z,17.58
2023-07-03T02:29:50.782Z,17.87
2023-07-03T02:32:20.357Z,17.67
2023-07-03T02:34:47.432Z,17.47
2023-07-03T02:37:15.194Z,17.67
2023-07-03T02:39:42.284Z,17.69
2023-07-03T02:42:13.840Z,18.08
2023-07-03T02:44:40.777Z,18.23
2023-07-03T02:47:07.884Z,18.29
2023-07-03T02:49:39.626Z,17.80
2023-07-03T02:52:06.903Z,17.88
2023-07-03T02:54:38.448Z,17.87
2023-07-03T02:57:05.667Z,17.93
2023-07-03T02:59:33.312Z,17.90
2023-07-03T03:02:00.326Z,18.03
2023-07-03T03:04:29.612Z,17.82
2023-07-03T03:06:56.568Z,18.15
2023-07-03T03:09:24.541Z,17.99
2023-07-03T03:11:51.566Z,17.86
2023-07-03T03:14:18.540Z,17.52
2023-07-03T03:16:45.558Z,17.66
2023-07-03T03:19:12.629Z,17.71
2023-07-03T03:21:39.627Z,17.43
2023-07-03T03:24:09.121Z,17.47
2023-07-03T03:26:38.397Z,17.46
2023-07-03T03:29:05.330Z,17.51
2023-07-03T03:31:32.218Z,17.30
2023-07-03T03:33:59.308Z,17.54
2023-07-03T03:36:34.087Z,17.38
2023-07-03T03:39:01.034Z,17.30
2023-07-03T03:41:28.013Z,17.63
2023-07-03T03:43:59.463Z,17.65
2023-07-03T03:46:26.345Z,17.36
2023-07-03T03:48:55.874Z,17.49
2023-07-03T03:51:23.320Z,17.36
2023-07-03T03:53:52.372Z,17.53
2023-07-03T03:56:21.718Z,17.62
2023-07-03T03:58:48.673Z,17.50
2023-07-03T04:01:18.240Z,17.64
2023-07-03T04:03:46.716Z,17.56
2023-07-03T04:06:17.634Z,17.63
2023-07-03T04:08:45.571Z,17.69
2023-07-03T04:11:13.029Z,17.42
2023-07-03T04:13:39.993Z,17.46
2023-07-03T04:16:09.939Z,17.33
2023-07-03T04:18:37.268Z,17.14
2023-07-03T04:21:04.425Z,16.97
2023-07-03T04:23:33.965Z,17.47
2023-07-03T04:26:02.118Z,17.62
2023-07-03T04:28:29.460Z,17.82
2023-07-03T04:30:56.634Z,17.93
2023-07-03T04:33:26.198Z,17.77
2023-07-03T04:35:53.489Z,17.72
2023-07-03T04:38:25.063Z,17.90
2023-07-03T04:40:54.732Z,17.89
2023-07-03T04:43:24.647Z,18.07
2023-07-03T04:45:54.417Z,18.63
2023-07-03T04:48:24.536Z,18.28
2023-07-03T04:50:53.783Z,18.47
2023-07-03T04:53:22.529Z,18.69
2023-07-03T04:55:53.317Z,18.13
2023-07-03T04:58:23.501Z,18.44
2023-07-03T05:00:54.084Z,18.48
2023-07-03T05:03:21.290Z,18.22
2023-07-03T05:05:48.523Z,18.15
2023-07-03T05:08:16.018Z,18.43
2023-07-03T05:10:45.523Z,18.23
2023-07-03T05:13:12.580Z,18.16
2023-07-03T05:15:39.662Z,18.41
2023-07-03T05:18:06.862Z,18.89
2023-07-03T05:20:33.910Z,19.04
2023-07-03T05:23:03.476Z,18.42
2023-07-03T05:25:30.482Z,18.40
2023-07-03T05:27:57.489Z,18.67
2023-07-03T05:30:24.575Z,18.72
2023-07-03T05:32:53.682Z,18.61
2023-07-03T05:35:20.702Z,18.72
2023-07-03T05:37:47.916Z,18.81
2023-07-03T05:40:18.315Z,18.90
2023-07-03T05:42:45.385Z,18.88
2023-07-03T05:45:15.018Z,18.44
2023-07-03T05:47:44.240Z,18.92
2023-07-03T05:50:11.462Z,18.81
2023-07-03T05:52:41.684Z,18.82
2023-07-03T05:55:08.841Z,18.95
2023-07-03T05:57:37.985Z,19.06
2023-07-03T06:00:14.910Z,18.86
2023-07-03T06:02:47.769Z,18.65
2023-07-03T06:05:16.190Z,18.66
2023-07-03T06:07:43.114Z,18.73
2023-07-03T06:10:16.261Z,18.78
2023-07-03T06:12:44.293Z,19.06
2023-07-03T06:15:12.324Z,18.68
2023-07-03T06:17:41.651Z,19.02
2023-07-03T06:20:09.730Z,18.91
2023-07-03T06:22:42.004Z,19.25
2023-07-03T06:25:10.397Z,19.11
2023-07-03T06:27:37.448Z,19.13
2023-07-03T06:30:05.165Z,18.61
2023-07-03T06:32:32.149Z,18.85
2023-07-03T06:35:06.698Z,18.94
2023-07-03T06:37:39.039Z,19.20
2023-07-03T06:40:12.725Z,19.32
2023-07-03T06:42:41.877Z,19.20
2023-07-03T06:45:09.760Z,19.08
2023-07-03T06:47:36.699Z,19.31
2023-07-03T06:50:04.134Z,19.25
2023-07-03T06:52:31.287Z,18.97
2023-07-03T06:55:00.734Z,19.30
2023-07-03T06:57:27.658Z,19.14
2023-07-03T06:59:54.606Z,18.97
2023-07-03T07:02:21.749Z,18.79
2023-07-03T07:04:49.096Z,18.77
2023-07-03T07:07:18.284Z,18.86
2023-07-03T07:09:45.202Z,18.37
2023-07-03T07:12:12.137Z,18.79
2023-07-03T07:14:39.150Z,19.07
2023-07-03T07:17:06.179Z,18.96
2023-07-03T07:19:33.246Z,19.24
2023-07-03T07:22:00.161Z,19.77
2023-07-03T07:24:28.855Z,19.61
2023-07-03T07:26:56.309Z,19.21
2023-07-03T07:29:26.567Z,19.35
2023-07-03T07:31:58.312Z,20.31
2023-07-03T07:34:30.495Z,20.37
2023-07-03T07:37:00.050Z,20.63
2023-07-03T07:39:29.448Z,20.46
2023-07-03T07:41:57.522Z,20.44
2023-07-03T07:44:28.129Z,20.32
2023-07-03T07:46:55.226Z,20.16
2023-07-03T07:49:29.239Z,20.31
2023-07-03T07:51:58.197Z,20.54
2023-07-03T07:54:30.760Z,20.45
2023-07-03T07:56:57.921Z,20.12
2023-07-03T07:59:28.253Z,20.61
2023-07-03T08:01:59.886Z,20.26
2023-07-03T08:04:27.680Z,20.38
2023-07-03T08:06:57.228Z,20.73
2023-07-03T08:09:24.741Z,21.09
2023-07-03T08:11:51.650Z,21.40
2023-07-03T08:14:20.827Z,21.67
2023-07-03T08:16:48.158Z,21.99
2023-07-03T08:19:15.400Z,21.66
2023-07-03T08:21:42.410Z,21.45
2023-07-03T08:24:11.687Z,21.47
2023-07-03T08:26:42.858Z,21.54
2023-07-03T08:29:09.944Z,21.91
2023-07-03T08:31:37.107Z,21.97
2023-07-03T08:34:04.237Z,21.93
2023-07-03T08:39:06.658Z,22.61
2023-07-03T08:41:51.158Z,22.67
2023-07-03T08:44:18.168Z,22.41
2023-07-03T08:47:01.937Z,22.09
2023-07-03T08:49:40.117Z,21.99
2023-07-03T08:52:08.482Z,22.62
2023-07-03T08:54:42.097Z,22.63
2023-07-03T08:57:12.339Z,22.20
2023-07-03T08:59:39.763Z,21.46
2023-07-03T09:02:39.384Z,21.66
2023-07-03T09:05:31.879Z,22.51
2023-07-03T09:08:04.677Z,22.24
2023-07-03T09:10:44.022Z,22.43
2023-07-03T09:13:27.888Z,23.07
2023-07-03T09:16:24.746Z,23.04
2023-07-03T09:19:07.451Z,22.47
2023-07-03T09:21:36.934Z,22.29
2023-07-03T09:24:22.535Z,22.18
2023-07-03T09:27:25.029Z,23.17
2023-07-03T09:29:55.070Z,23.59
2023-07-03T09:32:31.325Z,23.88
2023-07-03T09:35:11.778Z,23.87
2023-07-03T09:37:46.091Z,23.69
2023-07-03T09:40:28.073Z,24.11
2023-07-03T09:42:55.248Z,24.32
2023-07-03T09:45:34.741Z,24.46
2023-07-03T09:48:05.351Z,24.37
2023-07-03T09:50:45.625Z,24.11
2023-07-03T09:53:32.012Z,23.81
2023-07-03T09:56:04.737Z,24.30
2023-07-03T09:58:34.257Z,24.37
2023-07-03T10:01:02.032Z,24.56
2023-07-03T10:03:34.300Z,24.16
2023-07-03T10:11:42.049Z,24.07
2023-07-03T10:14:16.824Z,23.59
2023-07-03T10:16:47.282Z,23.35
2023-07-03T10:19:15.664Z,23.47
2023-07-03T10:21:50.463Z,23.44
2023-07-03T10:24:18.089Z,23.34
2023-07-03T10:26:58.706Z,23.82
2023-07-03T10:29:33.993Z,24.24
2023-07-03T10:32:06.631Z,24.03
2023-07-03T10:34:48.869Z,24.34
2023-07-03T10:37:20.248Z,25.10
2023-07-03T10:40:11.551Z,25.08
2023-07-03T10:42:48.600Z,24.87
2023-07-03T10:45:19.032Z,24.56
2023-07-03T10:48:00.225Z,23.76
2023-07-03T10:51:04.274Z,23.12
2023-07-03T10:53:46.221Z,22.77
2023-07-03T10:56:26.194Z,22.52
2023-07-03T10:59:06.190Z,21.92
2023-07-03T11:02:38.901Z,21.95
2023-07-03T11:05:35.412Z,21.86
2023-07-03T11:08:26.016Z,21.86
2023-07-03T11:11:15.054Z,21.78
2023-07-03T11:14:03.420Z,21.65
2023-07-03T11:16:50.365Z,22.05
2023-07-03T11:25:10.251Z,22.51
2023-07-03T11:28:08.839Z,22.84
2023-07-03T11:30:36.994Z,23.10
2023-07-03T11:33:07.311Z,23.13
2023-07-03T11:40:59.847Z,23.40
2023-07-03T11:43:33.515Z,23.17
2023-07-03T11:46:00.395Z,23.04
2023-07-03T11:48:50.871Z,22.43
2023-07-03T11:51:35.820Z,21.67
2023-07-03T11:54:25.370Z,21.56
2023-07-03T11:57:00.874Z,21.51
2023-07-03T11:59:33.194Z,21.69
2023-07-03T12:02:12.651Z,22.09
2023-07-03T12:04:49.077Z,22.14
2023-07-03T12:07:19.838Z,22.42
2023-07-03T12:09:48.180Z,22.90
2023-07-03T12:12:25.402Z,22.98
2023-07-03T12:14:58.455Z,22.90
2023-07-03T12:17:37.305Z,22.87
2023-07-03T12:20:20.649Z,23.19
2023-07-03T12:22:52.697Z,22.96
2023-07-03T12:25:30.672Z,22.91
2023-07-03T12:28:12.467Z,22.41
2023-07-03T12:30:39.818Z,22.19
2023-07-03T12:33:07.506Z,21.76
2023-07-03T12:35:37.991Z,21.64
2023-07-03T12:38:14.683Z,21.54
2023-07-03T12:40:46.294Z,21.24
2023-07-03T12:43:18.997Z,21.39
2023-07-03T12:45:54.817Z,21.44
2023-07-03T12:48:23.819Z,21.34
2023-07-03T12:50:57.602Z,21.13
2023-07-03T12:53:30.878Z,21.16
2023-07-03T12:56:08.092Z,21.38
2023-07-03T12:58:38.808Z,21.55
2023-07-03T13:01:08.213Z,21.99
2023-07-03T13:03:41.416Z,22.69
2023-07-03T13:06:16.924Z,23.15
2023-07-03T13:08:48.797Z,23.19
2023-07-03T13:11:15.738Z,23.49
2023-07-03T13:13:42.800Z,23.88
2023-07-03T13:16:19.095Z,23.84
2023-07-03T13:19:07.463Z,23.96
2023-07-03T13:21:37.705Z,23.67
2023-07-03T13:24:15.755Z,23.51
2023-07-03T13:26:52.133Z,23.37
2023-07-03T13:29:30.776Z,23.09
2023-07-03T13:32:20.786Z,22.87
2023-07-03T13:35:08.687Z,22.65
2023-07-03T13:37:37.285Z,22.72
2023-07-03T13:40:05.179Z,22.59
2023-07-03T13:42:37.200Z,22.14
2023-07-03T13:45:06.726Z,21.99
2023-07-03T13:47:33.837Z,21.77
2023-07-03T13:50:05.320Z,21.87
2023-07-03T13:52:32.262Z,22.43
2023-07-03T13:55:01.403Z,22.93
2023-07-03T13:57:28.382Z,23.17
2023-07-03T13:59:55.417Z,23.40
2023-07-03T14:02:34.686Z,23.93
2023-07-03T14:05:10.189Z,24.09
2023-07-03T14:07:37.133Z,23.67
2023-07-03T14:10:05.844Z,23.74
2023-07-03T14:12:32.825Z,23.69
2023-07-03T14:15:28.369Z,23.47
2023-07-03T14:17:55.708Z,22.95
2023-07-03T14:20:24.862Z,22.95
2023-07-03T14:22:51.854Z,22.51
2023-07-03T14:25:19.441Z,22.65
2023-07-03T14:27:48.853Z,22.42
2023-07-03T14:30:15.945Z,22.50
2023-07-03T14:32:53.188Z,22.56
2023-07-03T14:35:23.535Z,22.47
2023-07-03T14:37:53.748Z,22.44
2023-07-03T14:40:23.389Z,22.32
2023-07-03T14:42:50.561Z,22.06
2023-07-03T14:45:17.982Z,21.89
2023-07-03T14:47:45.213Z,21.98
2023-07-03T14:50:13.495Z,22.23
2023-07-03T14:52:43.370Z,22.46
2023-07-03T14:55:17.690Z,22.18
2023-07-03T14:57:46.677Z,22.15
2023-07-03T15:00:17.255Z,22.16
2023-07-03T15:02:47.153Z,22.52
2023-07-03T15:05:14.193Z,22.66
2023-07-03T15:07:42.243Z,22.29
2023-07-03T15:10:13.964Z,21.98
2023-07-03T15:12:41.058Z,22.08
2023-07-03T15:15:12.103Z,22.10
2023-07-03T15:17:41.716Z,21.84
2023-07-03T15:20:09.573Z,21.93
2023-07-03T15:22:39.091Z,21.79
2023-07-03T15:25:06.361Z,21.91
2023-07-03T15:27:34.379Z,21.52
2023-07-03T15:30:03.757Z,21.42
2023-07-03T15:32:30.866Z,21.35
2023-07-03T15:34:57.969Z,21.52
2023-07-03T15:37:24.910Z,21.37
2023-07-03T15:39:51.952Z,21.52
2023-07-03T15:42:18.926Z,21.50
2023-07-03T15:44:57.279Z,21.39
2023-07-03T15:47:24.815Z,21.64
2023-07-03T15:49:58.155Z,21.44
2023-07-03T15:52:27.914Z,21.46
2023-07-03T15:54:54.993Z,21.04
2023-07-03T15:57:24.701Z,21.07
2023-07-03T15:59:53.838Z,20.99
2023-07-03T16:02:20.822Z,21.07
2023-07-03T16:04:47.981Z,21.02
2023-07-03T16:07:17.213Z,21.04
2023-07-03T16:09:44.241Z,20.69
2023-07-03T16:12:11.198Z,20.66
2023-07-03T16:14:38.255Z,20.50
2023-07-03T16:17:05.407Z,20.74
2023-07-03T16:19:32.375Z,21.00
2023-07-03T16:21:59.273Z,21.25
2023-07-03T16:24:28.709Z,21.32
2023-07-03T16:26:55.825Z,21.24
2023-07-03T16:29:22.811Z,21.23
2023-07-03T16:31:49.864Z,20.91
2023-07-03T16:34:17.132Z,21.14
2023-07-03T16:36:46.363Z,20.69
2023-07-03T16:39:15.420Z,20.72
2023-07-03T16:41:43.040Z,20.52
2023-07-03T16:44:10.062Z,20.78
2023-07-03T16:46:39.834Z,20.99
2023-07-03T16:49:10.292Z,21.20
2023-07-03T16:51:37.213Z,21.28
2023-07-03T16:54:07.031Z,21.37
2023-07-03T16:56:34.615Z,21.30
2023-07-03T16:59:02.311Z,21.23
2023-07-03T17:01:31.732Z,21.32
2023-07-03T17:03:58.941Z,21.35
2023-07-03T17:06:34.045Z,21.54
2023-07-03T17:09:02.694Z,21.54
2023-07-03T17:11:31.997Z,21.21
2023-07-03T17:14:03.789Z,21.02
2023-07-03T17:16:31.081Z,20.91
2023-07-03T17:18:58.286Z,20.56
2023-07-03T17:21:28.397Z,20.24
2023-07-03T17:24:04.444Z,20.37
2023-07-03T17:26:35.504Z,20.58
2023-07-03T17:29:05.717Z,20.71
2023-07-03T17:31:35.414Z,20.75
2023-07-03T17:34:02.877Z,20.66
2023-07-03T17:36:30.031Z,20.75
2023-07-03T17:38:57.036Z,20.72
2023-07-03T17:41:28.618Z,20.80
2023-07-03T17:43:58.721Z,20.67
2023-07-03T17:46:25.698Z,20.86
2023-07-03T17:48:52.641Z,20.82
2023-07-03T17:51:19.915Z,21.04
2023-07-03T17:53:48.466Z,20.73
2023-07-03T17:56:21.161Z,20.79
2023-07-03T17:58:48.787Z,20.69
2023-07-03T18:01:18.242Z,20.79
2023-07-03T18:03:50.172Z,20.58
2023-07-03T18:06:19.853Z,20.56
2023-07-03T18:08:46.828Z,20.48
2023-07-03T18:11:16.095Z,20.17
2023-07-03T18:13:47.638Z,20.10
2023-07-03T18:16:14.617Z,19.50
2023-07-03T18:18:41.556Z,19.69
2023-07-03T18:21:11.590Z,19.97
2023-07-03T18:23:41.564Z,20.00
2023-07-03T18:26:10.807Z,20.00
2023-07-03T18:28:39.836Z,20.12
2023-07-03T18:31:08.994Z,20.23
2023-07-03T18:33:35.936Z,20.07
2023-07-03T18:36:02.961Z,20.07
2023-07-03T18:38:31.312Z,20.09
2023-07-03T18:41:04.603Z,20.13
2023-07-03T18:43:31.982Z,20.07
2023-07-03T18:46:01.940Z,19.96
2023-07-03T18:48:28.995Z,20.11
2023-07-03T18:51:01.317Z,19.98
2023-07-03T18:53:28.267Z,20.18
2023-07-03T18:55:55.202Z,20.17
2023-07-03T18:58:22.166Z,20.12
2023-07-03T19:00:53.633Z,20.18
2023-07-03T19:03:23.820Z,19.80
2023-07-03T19:05:57.414Z,19.80
2023-07-03T19:08:26.598Z,19.91
2023-07-03T19:10:54.581Z,19.65
2023-07-03T19:13:24.075Z,19.95
2023-07-03T19:15:55.572Z,19.86
2023-07-03T19:18:25.407Z,19.74
2023-07-03T19:20:55.134Z,19.91
2023-07-03T19:23:24.279Z,19.45
2023-07-03T19:26:00.187Z,19.69
2023-07-03T19:28:29.876Z,19.68
2023-07-03T19:31:02.282Z,19.64
2023-07-03T19:33:30.562Z,19.60
2023-07-03T19:36:00.845Z,19.57
2023-07-03T19:38:30.494Z,19.57
2023-07-03T19:40:57.707Z,19.49
2023-07-03T19:43:26.712Z,19.58
2023-07-03T19:45:55.813Z,19.58
2023-07-03T19:48:25.373Z,19.60
2023-07-03T19:50:52.580Z,19.63
2023-07-03T19:53:19.574Z,19.53
2023-07-03T19:55:49.707Z,19.45
2023-07-03T19:58:17.625Z,19.38
2023-07-03T20:01:02.248Z,19.33
2023-07-03T20:03:29.810Z,19.39
2023-07-03T20:05:57.462Z,19.41
2023-07-03T20:08:27.233Z,19.27
2023-07-03T20:11:03.894Z,19.21
2023-07-03T20:13:35.667Z,19.38
2023-07-03T20:16:04.399Z,19.18
2023-07-03T20:18:33.004Z,19.25
2023-07-03T20:21:05.061Z,19.23
2023-07-03T20:23:33.077Z,19.02
2023-07-03T20:26:00.084Z,19.13
2023-07-03T20:28:29.695Z,19.04
2023-07-03T20:30:57.010Z,18.91
2023-07-03T20:33:26.417Z,18.87
2023-07-03T20:36:03.392Z,18.70
2023-07-03T20:38:33.684Z,18.27
2023-07-03T20:41:07.439Z,18.21
2023-07-03T20:43:36.771Z,17.97
2023-07-03T20:46:10.973Z,17.87
2023-07-03T20:48:45.351Z,17.80
2023-07-03T20:51:13.476Z,17.85
2023-07-03T20:53:59.660Z,17.49
2023-07-03T20:56:35.209Z,17.44
2023-07-03T20:59:03.156Z,17.64
2023-07-03T21:01:36.568Z,17.41
2023-07-03T21:04:10.171Z,17.60
2023-07-03T21:06:38.910Z,17.50
2023-07-03T21:09:07.254Z,17.60
2023-07-03T21:11:40.457Z,17.75
2023-07-03T21:14:12.121Z,17.62
2023-07-03T21:16:44.849Z,17.66
2023-07-03T21:19:13.931Z,17.65
2023-07-03T21:21:43.433Z,17.66
2023-07-03T21:24:15.525Z,17.73
2023-07-03T21:26:42.494Z,17.52
2023-07-03T21:29:11.715Z,17.34
2023-07-03T21:31:39.926Z,17.35
2023-07-03T21:34:13.202Z,17.26
2023-07-03T21:36:40.699Z,17.14
2023-07-03T21:39:13.949Z,17.09
2023-07-03T21:41:43.092Z,17.07
2023-07-03T21:44:16.955Z,16.99
2023-07-03T21:46:44.817Z,17.09
2023-07-03T21:49:14.991Z,17.01
2023-07-03T21:51:42.163Z,17.02
2023-07-03T21:54:09.198Z,17.02
2023-07-03T21:56:37.962Z,16.95
2023-07-03T21:59:05.495Z,16.97
2023-07-03T22:01:38.909Z,17.01
2023-07-03T22:04:08.707Z,16.95
2023-07-03T22:06:36.138Z,17.06
2023-07-03T22:09:05.559Z,17.10
2023-07-03T22:11:33.588Z,17.23
2023-07-03T22:14:03.990Z,17.49
2023-07-03T22:16:31.201Z,17.13
2023-07-03T22:19:00.338Z,17.07
2023-07-03T22:21:30.656Z,17.10
2023-07-03T22:23:58.664Z,16.93
2023-07-03T22:26:27.843Z,17.08
2023-07-03T22:28:54.830Z,16.88
2023-07-03T22:31:22.008Z,17.02
2023-07-03T22:33:49.021Z,16.89
2023-07-03T22:36:15.961Z,16.77
2023-07-03T22:38:45.658Z,16.88
2023-07-03T22:41:15.878Z,16.81
2023-07-03T22:43:46.419Z,16.99
2023-07-03T22:46:13.469Z,16.94
2023-07-03T22:48:43.019Z,16.88
2023-07-03T22:51:16.451Z,16.77
2023-07-03T22:53:43.488Z,16.79
2023-07-03T22:56:10.473Z,16.83
2023-07-03T22:58:39.891Z,17.04
2023-07-03T23:01:14.586Z,17.15
2023-07-03T23:03:44.573Z,16.85
2023-07-03T23:06:11.586Z,16.82
2023-07-03T23:08:43.448Z,16.94
2023-07-03T23:11:15.204Z,16.98
2023-07-03T23:13:42.317Z,17.08
2023-07-03T23:16:10.465Z,17.29
2023-07-03T23:18:40.938Z,17.31
2023-07-03T23:21:14.191Z,17.53
2023-07-03T23:23:41.664Z,17.46
2023-07-03T23:26:13.666Z,17.59
2023-07-03T23:28:48.849Z,17.77
2023-07-03T23:31:18.401Z,17.98
2023-07-03T23:33:51.502Z,18.19
2023-07-03T23:36:21.431Z,18.26
2023-07-03T23:38:50.350Z,18.40
2023-07-03T23:41:18.008Z,18.32
2023-07-03T23:43:45.522Z,18.20
2023-07-03T23:46:13.157Z,17.86
2023-07-03T23:48:43.094Z,17.33
2023-07-03T23:51:11.990Z,17.13
2023-07-03T23:53:46.171Z,16.94
2023-07-03T23:56:18.824Z,16.86
2023-07-03T23:58:47.369Z,16.90
